Terminal Aerodrome Forecast
Issued by NWS

Home | Current Version | Previous Version | Text Only | Print | Product List | Glossary On
Versions: 1 2 3 4 5 6 7 8 9 10 11 12
000
FTUS44 KCRP 242336
TAFLRD
TAF
KLRD 242336Z 2500/2524 13015KT P6SM FEW150
     FM250600 15008KT P6SM SKC
     FM251800 14012KT P6SM SCT070=

USA.gov is the U.S. government's official web portal to all federal, state and local government web resources and services.